createdAt,value
2022-10-30T00:00:04.365Z,87.12
2022-10-30T00:03:02.452Z,87.20
2022-10-30T00:06:00.422Z,87.20
2022-10-30T00:08:57.849Z,87.20
2022-10-30T00:11:55.324Z,87.22
2022-10-30T00:14:52.767Z,87.26
2022-10-30T00:17:50.221Z,87.27
2022-10-30T00:20:47.725Z,87.28
2022-10-30T00:23:45.263Z,87.26
2022-10-30T00:26:42.704Z,87.30
2022-10-30T00:29:40.173Z,87.32
2022-10-30T00:32:37.621Z,87.38
2022-10-30T00:35:35.083Z,87.38
2022-10-30T00:38:32.566Z,87.34
2022-10-30T00:41:29.997Z,87.38
2022-10-30T00:44:27.462Z,87.30
2022-10-30T00:47:24.913Z,87.29
2022-10-30T00:50:22.398Z,87.30
2022-10-30T00:53:20.326Z,87.27
2022-10-30T00:56:17.759Z,87.29
2022-10-30T00:59:15.213Z,87.22
2022-10-30T01:02:12.714Z,87.20
2022-10-30T01:08:12.609Z,87.20
2022-10-30T01:11:10.098Z,87.19
2022-10-30T01:14:07.599Z,87.19
2022-10-30T01:17:05.048Z,87.13
2022-10-30T01:23:04.830Z,87.11
2022-10-30T01:26:02.274Z,87.13
2022-10-30T01:28:59.756Z,87.17
2022-10-30T01:31:57.218Z,87.13
2022-10-30T01:34:54.672Z,87.13
2022-10-30T01:37:52.109Z,87.14
2022-10-30T01:40:49.593Z,87.14
2022-10-30T01:43:47.039Z,87.11
2022-10-30T01:46:44.526Z,87.17
2022-10-30T01:49:42.018Z,87.14
2022-10-30T01:52:39.772Z,87.13
2022-10-30T01:55:37.239Z,87.16
2022-10-30T01:58:34.669Z,87.11
2022-10-30T02:01:33.525Z,87.10
2022-10-30T02:04:31.102Z,87.09
2022-10-30T02:07:28.551Z,87.10
2022-10-30T02:10:25.949Z,87.04
2022-10-30T02:13:23.403Z,87.01
2022-10-30T02:16:20.849Z,87.00
2022-10-30T02:19:18.296Z,87.00
2022-10-30T02:22:17.017Z,87.00
2022-10-30T02:25:14.505Z,86.97
2022-10-30T02:28:12.007Z,87.00
2022-10-30T02:31:09.450Z,87.01
2022-10-30T02:34:06.915Z,87.01
2022-10-30T02:37:04.360Z,87.00
2022-10-30T02:40:01.814Z,87.07
2022-10-30T02:42:59.719Z,87.10
2022-10-30T02:45:57.257Z,87.10
2022-10-30T02:48:54.704Z,87.14
2022-10-30T02:51:52.159Z,87.19
2022-10-30T02:54:49.594Z,87.26
2022-10-30T02:57:47.067Z,87.29
2022-10-30T03:00:44.492Z,87.28
2022-10-30T03:03:41.954Z,87.30
2022-10-30T03:06:39.403Z,87.29
2022-10-30T03:09:36.846Z,87.30
2022-10-30T03:12:34.310Z,87.30
2022-10-30T03:15:31.806Z,87.30
2022-10-30T03:18:29.277Z,87.35
2022-10-30T03:21:26.734Z,87.29
2022-10-30T03:24:24.203Z,87.25
2022-10-30T03:27:21.651Z,87.24
2022-10-30T03:30:19.102Z,87.20
2022-10-30T03:33:16.584Z,87.19
2022-10-30T03:36:14.045Z,87.10
2022-10-30T03:39:11.532Z,87.01
2022-10-30T03:42:08.985Z,87.00
2022-10-30T03:45:06.426Z,86.92
2022-10-30T03:48:03.862Z,86.89
2022-10-30T03:51:01.315Z,86.91
2022-10-30T03:53:58.763Z,86.92
2022-10-30T03:56:56.204Z,86.93
2022-10-30T03:59:53.663Z,86.93
2022-10-30T04:02:51.096Z,86.87
2022-10-30T04:05:51.141Z,86.87
2022-10-30T04:08:48.579Z,86.88
2022-10-30T04:11:46.164Z,86.90
2022-10-30T04:14:43.625Z,86.89
2022-10-30T04:17:41.083Z,86.90
2022-10-30T04:20:38.555Z,86.95
2022-10-30T04:23:36.023Z,87.00
2022-10-30T04:26:33.622Z,87.00
2022-10-30T04:29:31.068Z,87.06
2022-10-30T04:32:28.506Z,87.09
2022-10-30T04:35:25.978Z,87.11
2022-10-30T04:38:23.428Z,87.10
2022-10-30T04:41:20.864Z,87.16
2022-10-30T04:44:18.343Z,87.18
2022-10-30T04:47:17.418Z,87.17
2022-10-30T04:50:14.940Z,87.20
2022-10-30T04:53:12.409Z,87.20
2022-10-30T04:56:09.861Z,87.22
2022-10-30T04:59:07.398Z,87.30
2022-10-30T05:02:05.044Z,87.30
2022-10-30T05:05:02.656Z,87.31
2022-10-30T05:08:00.541Z,87.30
2022-10-30T05:10:58.520Z,87.30
2022-10-30T05:13:56.074Z,87.23
2022-10-30T05:16:54.660Z,87.20
2022-10-30T05:19:52.097Z,87.20
2022-10-30T05:22:49.557Z,87.20
2022-10-30T05:25:47.012Z,87.20
2022-10-30T05:28:44.459Z,87.21
2022-10-30T05:31:41.929Z,87.20
2022-10-30T05:34:39.396Z,87.20
2022-10-30T05:37:36.840Z,87.20
2022-10-30T05:40:34.286Z,87.20
2022-10-30T05:43:31.710Z,87.20
2022-10-30T05:46:29.154Z,87.20
2022-10-30T05:49:26.805Z,87.20
2022-10-30T05:52:24.251Z,87.21
2022-10-30T05:55:21.712Z,87.21
2022-10-30T05:58:19.170Z,87.28
2022-10-30T06:01:16.684Z,87.30
2022-10-30T06:04:14.158Z,87.34
2022-10-30T06:07:11.616Z,87.40
2022-10-30T06:10:09.072Z,87.40
2022-10-30T06:13:06.553Z,87.43
2022-10-30T06:16:03.993Z,87.50
2022-10-30T06:19:01.430Z,87.51
2022-10-30T06:21:58.897Z,87.52
2022-10-30T06:24:56.337Z,87.59
2022-10-30T06:27:53.901Z,87.60
2022-10-30T06:30:51.341Z,87.60
2022-10-30T06:33:48.786Z,87.63
2022-10-30T06:36:46.286Z,87.62
2022-10-30T06:39:43.763Z,87.63
2022-10-30T06:42:41.209Z,87.60
2022-10-30T06:45:38.655Z,87.61
2022-10-30T06:48:36.119Z,87.62
2022-10-30T06:51:33.574Z,87.68
2022-10-30T06:54:31.059Z,87.68
2022-10-30T06:57:28.520Z,87.68
2022-10-30T07:00:25.958Z,87.70
2022-10-30T07:03:23.403Z,87.79
2022-10-30T07:06:20.841Z,87.76
2022-10-30T07:09:18.320Z,87.78
2022-10-30T07:12:15.793Z,87.70
2022-10-30T07:15:13.233Z,87.66
2022-10-30T07:18:10.702Z,87.61
2022-10-30T07:21:08.175Z,87.60
2022-10-30T07:24:05.611Z,87.52
2022-10-30T07:27:03.066Z,87.46
2022-10-30T07:30:00.478Z,87.39
2022-10-30T07:32:58.199Z,87.31
2022-10-30T07:35:56.044Z,87.18
2022-10-30T07:38:53.536Z,86.97
2022-10-30T07:41:51.485Z,86.82
2022-10-30T07:44:48.949Z,86.78
2022-10-30T07:47:46.434Z,86.65
2022-10-30T07:50:44.284Z,86.59
2022-10-30T07:53:42.410Z,86.56
2022-10-30T07:56:40.391Z,86.50
2022-10-30T07:59:37.977Z,86.38
2022-10-30T08:02:35.489Z,86.20
2022-10-30T08:05:33.973Z,86.25
2022-10-30T08:08:33.008Z,86.24
2022-10-30T08:11:31.002Z,86.31
2022-10-30T08:14:29.182Z,86.24
2022-10-30T08:17:26.684Z,86.24
2022-10-30T08:20:24.164Z,86.12
2022-10-30T08:23:22.479Z,86.15
2022-10-30T08:26:19.986Z,86.18
2022-10-30T08:29:17.761Z,86.06
2022-10-30T08:32:16.594Z,86.02
2022-10-30T08:35:19.461Z,85.92
2022-10-30T08:38:17.482Z,85.86
2022-10-30T08:41:14.991Z,85.82
2022-10-30T08:44:12.487Z,85.66
2022-10-30T08:47:09.951Z,85.61
2022-10-30T08:50:07.446Z,85.50
2022-10-30T08:53:04.936Z,85.28
2022-10-30T08:56:02.370Z,85.13
2022-10-30T08:58:59.839Z,85.03
2022-10-30T09:01:57.471Z,85.00
2022-10-30T09:04:55.225Z,84.88
2022-10-30T09:07:52.707Z,84.88
2022-10-30T09:10:50.162Z,84.89
2022-10-30T09:13:47.631Z,84.91
2022-10-30T09:16:45.084Z,84.90
2022-10-30T09:19:42.623Z,84.80
2022-10-30T09:22:40.097Z,84.71
2022-10-30T09:25:37.564Z,84.63
2022-10-30T09:28:35.030Z,84.50
2022-10-30T09:31:32.485Z,84.50
2022-10-30T09:34:31.021Z,84.37
2022-10-30T09:37:28.505Z,84.31
2022-10-30T09:40:25.992Z,84.27
2022-10-30T09:43:24.758Z,84.10
2022-10-30T09:46:22.230Z,84.01
2022-10-30T09:49:19.674Z,84.07
2022-10-30T09:52:17.125Z,84.12
2022-10-30T09:55:14.581Z,84.00
2022-10-30T09:58:12.045Z,83.90
2022-10-30T10:01:09.953Z,83.78
2022-10-30T10:04:07.472Z,83.71
2022-10-30T10:07:04.921Z,83.49
2022-10-30T10:10:02.657Z,83.32
2022-10-30T10:13:01.411Z,83.24
2022-10-30T10:15:59.257Z,83.21
2022-10-30T10:18:56.713Z,83.26
2022-10-30T10:21:54.179Z,83.18
2022-10-30T10:24:51.629Z,83.02
2022-10-30T10:27:49.092Z,83.13
2022-10-30T10:30:46.520Z,82.99
2022-10-30T10:33:43.987Z,82.89
2022-10-30T10:36:41.429Z,82.68
2022-10-30T10:39:38.878Z,82.76
2022-10-30T10:42:36.340Z,82.88
2022-10-30T10:45:33.845Z,82.99
2022-10-30T10:48:31.324Z,83.03
2022-10-30T10:51:28.785Z,83.20
2022-10-30T10:54:26.247Z,83.29
2022-10-30T10:57:23.705Z,83.38
2022-10-30T11:00:21.248Z,83.40
2022-10-30T11:03:18.749Z,83.41
2022-10-30T11:06:16.242Z,83.48
2022-10-30T11:09:13.695Z,83.55
2022-10-30T11:12:11.139Z,83.60
2022-10-30T11:15:08.748Z,83.58
2022-10-30T11:21:09.268Z,83.58
2022-10-30T11:24:06.695Z,83.50
2022-10-30T11:27:04.164Z,83.46
2022-10-30T11:30:01.641Z,83.43
2022-10-30T11:32:59.229Z,83.40
2022-10-30T11:35:56.810Z,83.40
2022-10-30T11:38:54.252Z,83.51
2022-10-30T11:41:54.778Z,83.53
2022-10-30T11:44:53.082Z,83.49
2022-10-30T11:47:50.527Z,83.36
2022-10-30T11:50:48.000Z,83.43
2022-10-30T11:53:45.452Z,83.28
2022-10-30T11:56:42.912Z,83.10
2022-10-30T11:59:40.367Z,83.18
2022-10-30T12:05:42.552Z,83.25
2022-10-30T12:08:42.490Z,83.22
2022-10-30T12:11:39.988Z,83.33
2022-10-30T12:14:37.423Z,83.43
2022-10-30T12:17:34.902Z,83.40
2022-10-30T12:20:32.358Z,83.44
2022-10-30T12:23:29.813Z,83.57
2022-10-30T12:26:27.607Z,83.50
2022-10-30T12:29:36.505Z,83.53
2022-10-30T12:32:42.461Z,83.57
2022-10-30T12:35:39.913Z,83.49
2022-10-30T12:38:37.386Z,83.50
2022-10-30T12:41:34.866Z,83.53
2022-10-30T12:44:32.376Z,83.66
2022-10-30T12:47:29.859Z,83.70
2022-10-30T12:50:27.309Z,83.72
2022-10-30T12:53:24.753Z,83.80
2022-10-30T12:56:22.224Z,83.81
2022-10-30T12:59:19.682Z,83.89
2022-10-30T13:02:17.333Z,83.99
2022-10-30T13:05:14.852Z,83.95
2022-10-30T13:08:12.312Z,84.06
2022-10-30T13:11:09.780Z,84.13
2022-10-30T13:14:07.238Z,84.10
2022-10-30T13:17:04.699Z,84.08
2022-10-30T13:20:02.152Z,84.12
2022-10-30T13:22:59.850Z,84.19
2022-10-30T13:25:57.715Z,84.22
2022-10-30T13:28:55.178Z,84.32
2022-10-30T13:31:52.619Z,84.37
2022-10-30T13:34:50.091Z,84.43
2022-10-30T13:37:47.560Z,84.53
2022-10-30T13:40:45.020Z,84.61
2022-10-30T13:43:43.159Z,84.63
2022-10-30T13:46:40.953Z,84.73
2022-10-30T13:49:38.418Z,84.80
2022-10-30T13:52:35.853Z,84.79
2022-10-30T13:55:33.308Z,84.80
2022-10-30T13:58:30.744Z,84.80
2022-10-30T14:01:28.294Z,84.76
2022-10-30T14:04:26.692Z,84.69
2022-10-30T14:07:24.132Z,84.68
2022-10-30T14:10:21.611Z,84.70
2022-10-30T14:13:19.039Z,84.65
2022-10-30T14:16:16.539Z,84.69
2022-10-30T14:19:13.981Z,84.69
2022-10-30T14:22:11.450Z,84.70
2022-10-30T14:25:08.909Z,84.64
2022-10-30T14:28:06.366Z,84.60
2022-10-30T14:31:03.824Z,84.60
2022-10-30T14:34:01.744Z,84.67
2022-10-30T14:36:59.525Z,84.70
2022-10-30T14:39:57.054Z,84.68
2022-10-30T14:42:54.528Z,84.61
2022-10-30T14:45:52.307Z,84.65
2022-10-30T14:48:50.262Z,84.70
2022-10-30T14:51:47.734Z,84.73
2022-10-30T14:54:45.182Z,84.82
2022-10-30T14:57:42.740Z,84.93
2022-10-30T15:00:40.381Z,84.99
2022-10-30T15:03:37.820Z,85.03
2022-10-30T15:06:35.243Z,85.11
2022-10-30T15:09:32.739Z,85.21
2022-10-30T15:12:30.221Z,85.20
2022-10-30T15:15:27.699Z,85.27
2022-10-30T15:18:29.406Z,85.34
2022-10-30T15:21:29.893Z,85.40
2022-10-30T15:24:32.162Z,85.47
2022-10-30T15:27:30.003Z,85.50
2022-10-30T15:30:27.468Z,85.53
2022-10-30T15:33:25.269Z,85.60
2022-10-30T15:36:23.047Z,85.67
2022-10-30T15:39:20.836Z,85.78
2022-10-30T15:42:18.267Z,85.87
2022-10-30T15:45:15.750Z,85.90
2022-10-30T15:48:13.196Z,85.94
2022-10-30T15:51:10.649Z,86.00
2022-10-30T15:54:08.521Z,86.00
2022-10-30T15:57:42.869Z,86.01
2022-10-30T16:00:24.015Z,86.00
2022-10-30T16:03:21.920Z,85.97
2022-10-30T16:06:19.631Z,85.91
2022-10-30T16:09:17.147Z,85.95
2022-10-30T16:12:14.603Z,85.98
2022-10-30T16:15:12.178Z,86.01
2022-10-30T16:18:09.617Z,86.05
2022-10-30T16:21:07.069Z,86.14
2022-10-30T16:24:04.605Z,86.19
2022-10-30T16:27:02.043Z,86.21
2022-10-30T16:29:59.942Z,86.20
2022-10-30T16:32:58.040Z,86.28
2022-10-30T16:35:56.157Z,86.28
2022-10-30T16:38:53.835Z,86.32
2022-10-30T16:41:51.426Z,86.31
2022-10-30T16:44:48.898Z,86.33
2022-10-30T16:47:47.825Z,86.40
2022-10-30T16:50:45.736Z,86.40
2022-10-30T16:53:43.191Z,86.37
2022-10-30T16:56:46.603Z,86.36
2022-10-30T16:59:44.056Z,86.40
2022-10-30T17:02:42.209Z,86.43
2022-10-30T17:05:39.793Z,86.50
2022-10-30T17:08:37.650Z,86.53
2022-10-30T17:11:35.711Z,86.53
2022-10-30T17:14:36.440Z,86.52
2022-10-30T17:17:33.928Z,86.51
2022-10-30T17:20:32.413Z,86.58
2022-10-30T17:23:29.908Z,86.59
2022-10-30T17:26:27.511Z,86.60
2022-10-30T17:29:25.088Z,86.59
2022-10-30T17:32:23.303Z,86.60
2022-10-30T17:35:21.376Z,86.62
2022-10-30T17:38:19.476Z,86.65
2022-10-30T17:41:17.673Z,86.67
2022-10-30T17:44:16.520Z,86.70
2022-10-30T17:47:14.866Z,86.75
2022-10-30T17:50:13.178Z,86.79
2022-10-30T17:53:12.018Z,86.76
2022-10-30T17:56:09.782Z,86.81
2022-10-30T17:59:08.025Z,86.83
2022-10-30T18:02:05.822Z,86.85
2022-10-30T18:05:03.547Z,86.85
2022-10-30T18:08:02.037Z,86.84
2022-10-30T18:11:01.111Z,86.89
2022-10-30T18:13:58.692Z,86.92
2022-10-30T18:16:56.475Z,86.92
2022-10-30T18:19:54.425Z,86.93
2022-10-30T18:22:53.061Z,86.93
2022-10-30T18:25:51.517Z,86.92
2022-10-30T18:28:49.406Z,86.99
2022-10-30T18:31:47.411Z,87.04
2022-10-30T18:34:45.661Z,87.06
2022-10-30T18:37:44.703Z,87.10
2022-10-30T18:40:43.201Z,87.13
2022-10-30T18:43:46.915Z,87.13
2022-10-30T18:46:48.624Z,87.18
2022-10-30T18:49:46.373Z,87.20
2022-10-30T18:52:44.910Z,87.20
2022-10-30T18:55:44.644Z,87.28
2022-10-30T18:58:46.042Z,87.31
2022-10-30T19:01:45.072Z,87.38
2022-10-30T19:04:43.162Z,87.45
2022-10-30T19:07:40.852Z,87.50
2022-10-30T19:10:38.904Z,87.50
2022-10-30T19:13:37.339Z,87.49
2022-10-30T19:16:37.026Z,87.47
2022-10-30T19:19:38.016Z,87.50
2022-10-30T19:22:35.890Z,87.51
2022-10-30T19:25:34.394Z,87.56
2022-10-30T19:28:33.029Z,87.61
2022-10-30T19:31:32.357Z,87.60
2022-10-30T19:34:30.743Z,87.60
2022-10-30T19:37:28.564Z,87.58
2022-10-30T19:40:27.031Z,87.53
2022-10-30T19:43:25.294Z,87.50
2022-10-30T19:46:23.954Z,87.50
2022-10-30T19:49:22.154Z,87.52
2022-10-30T19:52:21.457Z,87.56
2022-10-30T19:55:24.947Z,87.57
2022-10-30T19:58:25.918Z,87.57
2022-10-30T20:01:24.899Z,87.57
2022-10-30T20:04:23.865Z,87.58
2022-10-30T20:07:24.386Z,87.56
2022-10-30T20:10:22.723Z,87.56
2022-10-30T20:13:23.407Z,87.62
2022-10-30T20:16:23.434Z,87.70
2022-10-30T20:19:21.693Z,87.69
2022-10-30T20:22:22.192Z,87.70
2022-10-30T20:25:24.537Z,87.70
2022-10-30T20:28:24.518Z,87.68
2022-10-30T20:31:35.695Z,87.67
2022-10-30T20:34:33.786Z,87.63
2022-10-30T20:37:31.600Z,87.60
2022-10-30T20:40:29.925Z,87.60
2022-10-30T20:43:28.504Z,87.65
2022-10-30T20:46:27.918Z,87.68
2022-10-30T20:49:26.127Z,87.69
2022-10-30T20:52:23.845Z,87.71
2022-10-30T20:55:22.213Z,87.74
2022-10-30T20:58:24.464Z,87.73
2022-10-30T21:01:22.286Z,87.78
2022-10-30T21:04:20.019Z,87.82
2022-10-30T21:07:17.909Z,87.86
2022-10-30T21:10:15.964Z,87.90
2022-10-30T21:13:13.556Z,87.92
2022-10-30T21:16:11.157Z,87.93
2022-10-30T21:22:52.342Z,87.92
2022-10-30T21:25:52.704Z,87.97
2022-10-30T21:29:17.857Z,87.99
2022-10-30T21:32:15.443Z,87.98
2022-10-30T21:35:13.142Z,88.00
2022-10-30T21:38:25.445Z,87.97
2022-10-30T21:41:31.181Z,87.92
2022-10-30T21:52:01.485Z,87.88
2022-10-30T21:54:58.942Z,87.87
2022-10-30T21:58:05.706Z,87.77
2022-10-30T22:01:15.349Z,87.77
2022-10-30T22:04:38.105Z,87.75
2022-10-30T22:07:40.898Z,87.72
2022-10-30T22:10:38.684Z,87.70
2022-10-30T22:13:36.261Z,87.70
2022-10-30T22:16:43.032Z,87.70
2022-10-30T22:19:40.574Z,87.70
2022-10-30T22:22:39.912Z,87.63
2022-10-30T22:25:42.942Z,87.70
2022-10-30T22:28:40.425Z,87.69
2022-10-30T22:31:37.951Z,87.69
2022-10-30T22:34:37.451Z,87.70
2022-10-30T22:37:34.939Z,87.75
2022-10-30T22:41:31.405Z,87.80
2022-10-30T22:44:00.266Z,87.81
2022-10-30T22:47:21.416Z,87.85
2022-10-30T22:50:19.203Z,87.90
2022-10-30T22:53:16.666Z,87.89
2022-10-30T22:56:14.091Z,87.88
2022-10-30T22:59:14.339Z,87.88
2022-10-30T23:02:11.877Z,87.88
2022-10-30T23:05:09.394Z,87.86
2022-10-30T23:08:06.911Z,87.87
2022-10-30T23:11:04.336Z,87.93
2022-10-30T23:14:21.699Z,87.97
2022-10-30T23:17:19.227Z,87.97
2022-10-30T23:20:16.763Z,87.93
2022-10-30T23:23:14.383Z,88.00
2022-10-30T23:26:12.107Z,88.00
2022-10-30T23:29:09.997Z,88.00
2022-10-30T23:32:10.612Z,88.00
2022-10-30T23:35:29.551Z,88.03
2022-10-30T23:38:27.104Z,88.07
2022-10-30T23:41:24.614Z,88.01
2022-10-30T23:44:22.056Z,87.99
2022-10-30T23:47:42.738Z,88.00
2022-10-30T23:50:42.299Z,88.01
2022-10-30T23:53:39.768Z,87.97
2022-10-30T23:56:37.214Z,87.98
2022-10-30T23:59:34.673Z,87.94
